createdAt,value
2023-02-14T00:00:13.262Z,52.05
2023-02-14T00:02:43.255Z,51.96
2023-02-14T00:05:13.181Z,51.76
2023-02-14T00:07:45.803Z,51.77
2023-02-14T00:10:15.862Z,52.03
2023-02-14T00:12:46.013Z,51.89
2023-02-14T00:15:25.617Z,51.75
2023-02-14T00:17:59.654Z,51.75
2023-02-14T00:20:30.682Z,51.84
2023-02-14T00:23:03.466Z,51.93
2023-02-14T00:25:33.675Z,51.86
2023-02-14T00:28:03.744Z,51.86
2023-02-14T00:30:33.791Z,51.82
2023-02-14T00:33:04.094Z,52.14
2023-02-14T00:35:34.115Z,52.21
2023-02-14T00:38:06.822Z,51.97
2023-02-14T00:40:36.786Z,52.03
2023-02-14T00:43:06.721Z,51.86
2023-02-14T00:45:37.786Z,51.64
2023-02-14T00:48:08.229Z,51.63
2023-02-14T00:50:38.186Z,51.63
2023-02-14T00:53:10.955Z,51.51
2023-02-14T00:55:41.059Z,51.92
2023-02-14T00:58:11.593Z,51.75
2023-02-14T01:00:41.677Z,51.41
2023-02-14T01:03:11.748Z,51.92
2023-02-14T01:05:41.747Z,51.81
2023-02-14T01:08:14.426Z,51.50
2023-02-14T01:10:44.893Z,51.74
2023-02-14T01:13:18.477Z,51.79
2023-02-14T01:15:50.672Z,51.42
2023-02-14T01:18:22.265Z,51.31
2023-02-14T01:20:52.231Z,51.68
2023-02-14T01:23:25.625Z,51.65
2023-02-14T01:25:55.660Z,51.39
2023-02-14T01:28:25.651Z,51.22
2023-02-14T01:30:55.637Z,51.17
2023-02-14T01:33:25.653Z,50.76
2023-02-14T01:35:56.723Z,50.86
2023-02-14T01:38:29.404Z,51.06
2023-02-14T01:40:59.629Z,51.22
2023-02-14T01:43:30.246Z,50.64
2023-02-14T01:46:00.332Z,51.06
2023-02-14T01:48:30.454Z,50.70
2023-02-14T01:51:00.812Z,50.70
2023-02-14T01:53:33.702Z,50.62
2023-02-14T01:56:08.711Z,50.66
2023-02-14T01:58:45.119Z,50.84
2023-02-14T02:01:16.652Z,51.07
2023-02-14T02:03:50.913Z,51.03
2023-02-14T02:06:25.285Z,50.93
2023-02-14T02:09:10.231Z,50.86
2023-02-14T02:11:40.650Z,50.74
2023-02-14T02:14:17.525Z,50.85
2023-02-14T02:17:10.949Z,50.76
2023-02-14T02:20:12.071Z,51.14
2023-02-14T02:23:06.174Z,50.98
2023-02-14T02:25:58.056Z,51.04
2023-02-14T02:28:54.691Z,50.80
2023-02-14T02:31:41.835Z,50.75
2023-02-14T02:34:50.223Z,51.01
2023-02-14T02:37:38.641Z,51.07
2023-02-14T02:40:25.127Z,51.31
2023-02-14T02:43:08.582Z,50.90
2023-02-14T02:45:59.724Z,50.99
2023-02-14T02:48:38.104Z,50.62
2023-02-14T02:51:29.638Z,51.03
2023-02-14T02:54:09.840Z,51.14
2023-02-14T02:56:49.929Z,51.14
2023-02-14T02:59:25.475Z,50.96
2023-02-14T03:02:04.791Z,50.86
2023-02-14T03:04:49.420Z,51.12
2023-02-14T03:07:31.802Z,51.46
2023-02-14T03:10:10.214Z,51.42
2023-02-14T03:12:59.609Z,51.22
2023-02-14T03:15:43.833Z,51.05
2023-02-14T03:18:39.506Z,51.16
2023-02-14T03:21:27.844Z,50.78
2023-02-14T03:24:03.726Z,50.84
2023-02-14T03:26:42.508Z,50.64
2023-02-14T03:29:19.208Z,50.76
2023-02-14T03:32:00.967Z,51.13
2023-02-14T03:34:38.239Z,50.86
2023-02-14T03:37:13.584Z,51.04
2023-02-14T03:39:50.462Z,51.32
2023-02-14T03:42:28.545Z,51.21
2023-02-14T03:45:01.209Z,51.24
2023-02-14T03:47:36.119Z,51.13
2023-02-14T03:50:13.910Z,51.37
2023-02-14T03:52:45.282Z,51.60
2023-02-14T03:55:18.825Z,51.46
2023-02-14T03:57:58.350Z,51.21
2023-02-14T04:00:30.512Z,50.95
2023-02-14T04:03:07.654Z,50.89
2023-02-14T04:05:38.627Z,51.15
2023-02-14T04:08:08.550Z,51.40
2023-02-14T04:10:40.105Z,51.60
2023-02-14T04:13:12.929Z,51.70
2023-02-14T04:15:42.961Z,51.67
2023-02-14T04:18:25.548Z,51.52
2023-02-14T04:20:55.533Z,51.62
2023-02-14T04:23:25.467Z,51.47
2023-02-14T04:25:55.530Z,51.40
2023-02-14T04:28:28.045Z,51.09
2023-02-14T04:30:58.570Z,51.25
2023-02-14T04:33:28.681Z,51.43
2023-02-14T04:35:58.713Z,51.38
2023-02-14T04:38:32.617Z,51.57
2023-02-14T04:41:02.719Z,51.59
2023-02-14T04:43:35.977Z,51.36
2023-02-14T04:46:06.095Z,51.59
2023-02-14T04:48:36.141Z,51.47
2023-02-14T04:51:06.974Z,50.97
2023-02-14T04:53:40.330Z,51.09
2023-02-14T04:56:10.526Z,51.05
2023-02-14T04:58:43.116Z,51.08
2023-02-14T05:01:13.840Z,50.63
2023-02-14T05:03:43.725Z,50.60
2023-02-14T05:06:13.673Z,50.71
2023-02-14T05:08:45.213Z,50.92
2023-02-14T05:11:15.291Z,50.82
2023-02-14T05:13:47.959Z,51.06
2023-02-14T05:16:18.068Z,51.32
2023-02-14T05:18:48.099Z,51.31
2023-02-14T05:21:18.069Z,51.29
2023-02-14T05:23:51.673Z,51.12
2023-02-14T05:26:21.676Z,51.17
2023-02-14T05:28:54.284Z,51.14
2023-02-14T05:31:24.507Z,50.89
2023-02-14T05:33:54.510Z,50.73
2023-02-14T05:36:24.507Z,51.05
2023-02-14T05:38:54.568Z,50.99
2023-02-14T05:41:24.562Z,51.10
2023-02-14T05:43:57.130Z,51.09
2023-02-14T05:46:27.050Z,51.17
2023-02-14T05:48:58.055Z,50.93
2023-02-14T05:51:28.109Z,50.91
2023-02-14T05:54:00.294Z,51.00
2023-02-14T05:56:30.408Z,50.72
2023-02-14T05:59:03.052Z,50.78
2023-02-14T06:01:33.142Z,50.84
2023-02-14T06:04:03.448Z,50.79
2023-02-14T06:06:36.821Z,50.93
2023-02-14T06:09:06.910Z,50.99
2023-02-14T06:11:36.912Z,51.00
2023-02-14T06:14:09.528Z,50.87
2023-02-14T06:16:39.595Z,50.88
2023-02-14T06:19:09.742Z,51.00
2023-02-14T06:21:45.878Z,51.00
2023-02-14T06:24:15.787Z,51.15
2023-02-14T06:26:45.844Z,51.14
2023-02-14T06:29:20.962Z,51.72
2023-02-14T06:31:55.705Z,51.77
2023-02-14T06:34:27.620Z,51.80
2023-02-14T06:37:00.697Z,51.77
2023-02-14T06:39:30.853Z,52.04
2023-02-14T06:42:03.064Z,51.79
2023-02-14T06:44:38.486Z,51.62
2023-02-14T06:47:10.874Z,51.39
2023-02-14T06:49:42.222Z,51.43
2023-02-14T06:52:12.157Z,51.51
2023-02-14T06:54:42.225Z,51.40
2023-02-14T06:57:12.208Z,51.26
2023-02-14T06:59:44.702Z,51.21
2023-02-14T07:02:15.739Z,51.15
2023-02-14T07:04:46.006Z,51.30
2023-02-14T07:07:20.525Z,51.50
2023-02-14T07:09:53.534Z,51.68
2023-02-14T07:12:25.912Z,51.52
2023-02-14T07:14:58.494Z,51.56
2023-02-14T07:17:33.479Z,51.56
2023-02-14T07:20:09.788Z,51.32
2023-02-14T07:22:40.486Z,51.29
2023-02-14T07:25:11.653Z,51.45
2023-02-14T07:27:41.907Z,51.15
2023-02-14T07:30:18.152Z,51.40
2023-02-14T07:32:48.161Z,51.39
2023-02-14T07:35:18.067Z,51.63
2023-02-14T07:37:48.067Z,51.46
2023-02-14T07:40:17.972Z,51.37
2023-02-14T07:42:47.878Z,50.96
2023-02-14T07:45:22.218Z,51.10
2023-02-14T07:47:53.559Z,51.18
2023-02-14T07:50:25.210Z,51.06
2023-02-14T07:52:55.170Z,50.95
2023-02-14T07:55:25.941Z,51.09
2023-02-14T07:57:56.051Z,51.32
2023-02-14T08:00:29.180Z,51.54
2023-02-14T08:02:59.117Z,51.63
2023-02-14T08:05:29.104Z,51.65
2023-02-14T08:07:59.126Z,51.72
2023-02-14T08:10:29.126Z,51.67
2023-02-14T08:12:59.279Z,51.56
2023-02-14T08:15:45.885Z,51.40
2023-02-14T08:18:16.266Z,51.11
2023-02-14T08:20:46.666Z,51.08
2023-02-14T08:23:16.558Z,51.25
2023-02-14T08:25:46.557Z,53.15
2023-02-14T08:28:18.000Z,52.26
2023-02-14T08:30:50.832Z,51.13
2023-02-14T08:33:20.996Z,50.67
2023-02-14T08:35:51.287Z,50.89
2023-02-14T08:38:21.413Z,50.54
2023-02-14T08:40:51.555Z,49.75
2023-02-14T08:43:21.761Z,50.02
2023-02-14T08:45:55.530Z,50.21
2023-02-14T08:48:26.920Z,50.08
2023-02-14T08:50:57.312Z,49.95
2023-02-14T08:53:27.454Z,50.33
2023-02-14T08:55:57.859Z,50.65
2023-02-14T08:58:28.313Z,50.81
2023-02-14T09:01:01.356Z,50.44
2023-02-14T09:03:36.672Z,50.34
2023-02-14T09:06:10.212Z,50.41
2023-02-14T09:08:41.815Z,50.52
2023-02-14T09:11:12.312Z,50.52
2023-02-14T09:13:46.199Z,50.86
2023-02-14T09:16:20.981Z,50.84
2023-02-14T09:18:51.719Z,52.18
2023-02-14T09:21:23.729Z,50.83
2023-02-14T09:23:53.678Z,50.18
2023-02-14T09:26:24.095Z,50.24
2023-02-14T09:28:54.052Z,50.18
2023-02-14T09:31:27.905Z,50.17
2023-02-14T09:33:57.970Z,50.05
2023-02-14T09:36:27.964Z,49.81
2023-02-14T09:38:58.089Z,49.93
2023-02-14T09:41:51.652Z,49.83
2023-02-14T09:44:31.110Z,50.03
2023-02-14T09:47:09.401Z,49.60
2023-02-14T09:49:42.544Z,49.79
2023-02-14T09:52:17.723Z,49.59
2023-02-14T09:54:54.194Z,49.80
2023-02-14T09:57:31.409Z,49.77
2023-02-14T10:00:14.678Z,50.12
2023-02-14T10:02:59.613Z,49.96
2023-02-14T10:05:32.094Z,49.83
2023-02-14T10:08:14.641Z,50.96
2023-02-14T10:10:46.142Z,49.52
2023-02-14T10:13:22.438Z,49.88
2023-02-14T10:16:01.877Z,49.53
2023-02-14T10:18:42.997Z,48.89
2023-02-14T10:21:18.276Z,48.32
2023-02-14T10:23:54.329Z,48.59
2023-02-14T10:26:30.862Z,48.79
2023-02-14T10:29:00.971Z,48.67
2023-02-14T10:31:38.236Z,48.44
2023-02-14T10:34:17.588Z,48.67
2023-02-14T10:37:01.441Z,49.17
2023-02-14T10:39:49.068Z,49.06
2023-02-14T10:42:27.346Z,48.70
2023-02-14T10:45:09.461Z,48.73
2023-02-14T10:47:50.078Z,48.49
2023-02-14T10:50:28.682Z,47.64
2023-02-14T10:53:07.233Z,48.19
2023-02-14T10:55:46.295Z,48.54
2023-02-14T10:58:20.963Z,48.14
2023-02-14T11:01:01.077Z,48.47
2023-02-14T11:03:37.716Z,48.61
2023-02-14T11:06:11.140Z,48.67
2023-02-14T11:08:43.226Z,48.41
2023-02-14T11:11:22.486Z,48.80
2023-02-14T11:13:52.771Z,48.54
2023-02-14T11:16:32.681Z,48.77
2023-02-14T11:19:12.908Z,48.85
2023-02-14T11:21:48.048Z,48.81
2023-02-14T11:24:28.082Z,48.70
2023-02-14T11:27:00.787Z,48.48
2023-02-14T11:29:33.042Z,47.72
2023-02-14T11:32:11.101Z,47.68
2023-02-14T11:34:43.393Z,47.70
2023-02-14T11:37:30.602Z,47.90
2023-02-14T11:40:04.053Z,47.90
2023-02-14T11:42:51.640Z,48.15
2023-02-14T11:45:34.098Z,48.65
2023-02-14T11:48:22.345Z,48.17
2023-02-14T11:51:05.629Z,47.79
2023-02-14T11:53:47.443Z,48.46
2023-02-14T11:56:19.359Z,48.25
2023-02-14T11:58:55.621Z,47.95
2023-02-14T12:01:28.366Z,48.15
2023-02-14T12:04:02.252Z,47.69
2023-02-14T12:06:34.630Z,47.56
2023-02-14T12:09:30.353Z,47.71
2023-02-14T12:12:03.079Z,47.04
2023-02-14T12:14:35.390Z,47.46
2023-02-14T12:17:13.386Z,46.73
2023-02-14T12:19:47.635Z,46.93
2023-02-14T12:22:22.089Z,46.02
2023-02-14T12:25:01.973Z,47.09
2023-02-14T12:27:36.640Z,47.32
2023-02-14T12:30:14.949Z,47.73
2023-02-14T12:32:50.708Z,47.06
2023-02-14T12:35:31.006Z,47.55
2023-02-14T12:38:11.088Z,47.50
2023-02-14T12:40:59.396Z,47.28
2023-02-14T12:43:48.146Z,47.81
2023-02-14T12:46:31.389Z,47.01
2023-02-14T12:49:22.532Z,47.73
2023-02-14T12:52:03.819Z,47.45
2023-02-14T12:54:52.420Z,47.81
2023-02-14T12:57:38.084Z,47.42
2023-02-14T13:00:31.956Z,47.62
2023-02-14T13:03:16.742Z,47.27
2023-02-14T13:05:56.881Z,47.11
2023-02-14T13:08:43.719Z,46.85
2023-02-14T13:11:25.674Z,47.06
2023-02-14T13:14:05.176Z,47.57
2023-02-14T13:16:43.245Z,47.79
2023-02-14T13:19:25.811Z,47.93
2023-02-14T13:21:59.699Z,47.70
2023-02-14T13:24:36.661Z,47.26
2023-02-14T13:27:10.823Z,47.43
2023-02-14T13:29:49.396Z,47.87
2023-02-14T13:32:24.414Z,47.61
2023-02-14T13:34:54.668Z,47.82
2023-02-14T13:37:28.280Z,47.97
2023-02-14T13:40:01.838Z,48.14
2023-02-14T13:42:53.780Z,48.24
2023-02-14T13:45:56.557Z,48.98
2023-02-14T13:48:29.324Z,49.15
2023-02-14T13:51:10.241Z,49.29
2023-02-14T13:53:42.828Z,48.71
2023-02-14T13:56:35.710Z,48.84
2023-02-14T13:59:08.693Z,48.69
2023-02-14T14:01:48.410Z,48.97
2023-02-14T14:04:37.147Z,49.34
2023-02-14T14:07:30.170Z,49.43
2023-02-14T14:10:02.981Z,49.31
2023-02-14T14:12:46.332Z,49.63
2023-02-14T14:15:21.645Z,49.36
2023-02-14T14:18:31.969Z,49.43
2023-02-14T14:21:02.046Z,49.54
2023-02-14T14:23:38.620Z,49.77
2023-02-14T14:26:39.697Z,50.01
2023-02-14T14:29:19.402Z,50.19
2023-02-14T14:31:55.775Z,50.36
2023-02-14T14:34:31.234Z,50.05
2023-02-14T14:37:05.721Z,49.72
2023-02-14T14:39:39.943Z,49.66
2023-02-14T14:42:12.572Z,49.77
2023-02-14T14:44:49.891Z,49.70
2023-02-14T14:47:22.706Z,49.94
2023-02-14T14:49:56.514Z,49.89
2023-02-14T14:52:33.605Z,49.91
2023-02-14T14:55:06.277Z,50.35
2023-02-14T14:57:39.268Z,50.49
2023-02-14T15:00:28.500Z,50.84
2023-02-14T15:03:07.860Z,51.08
2023-02-14T15:05:43.130Z,51.17
2023-02-14T15:08:20.603Z,51.07
2023-02-14T15:10:54.396Z,50.46
2023-02-14T15:13:45.848Z,50.88
2023-02-14T15:16:20.438Z,50.91
2023-02-14T15:18:51.825Z,51.04
2023-02-14T15:21:24.584Z,50.74
2023-02-14T15:23:56.695Z,50.75
2023-02-14T15:26:31.597Z,50.91
2023-02-14T15:29:03.509Z,50.82
2023-02-14T15:31:37.589Z,50.96
2023-02-14T15:34:09.891Z,51.13
2023-02-14T15:36:49.135Z,51.07
2023-02-14T15:39:21.395Z,50.94
2023-02-14T15:41:55.294Z,51.10
2023-02-14T15:44:26.784Z,51.28
2023-02-14T15:46:58.922Z,51.43
2023-02-14T15:49:35.904Z,51.77
2023-02-14T15:52:09.789Z,51.76
2023-02-14T15:54:42.467Z,51.68
2023-02-14T15:57:23.907Z,51.86
2023-02-14T15:59:55.083Z,51.97
2023-02-14T16:02:33.345Z,52.20
2023-02-14T16:05:09.157Z,51.70
2023-02-14T16:07:41.747Z,51.81
2023-02-14T16:10:25.762Z,52.33
2023-02-14T16:13:01.938Z,52.39
2023-02-14T16:15:34.599Z,52.58
2023-02-14T16:18:08.383Z,52.55
2023-02-14T16:20:45.302Z,52.28
2023-02-14T16:23:29.988Z,52.49
2023-02-14T16:26:00.394Z,52.75
2023-02-14T16:28:32.938Z,53.06
2023-02-14T16:31:06.216Z,52.99
2023-02-14T16:33:38.797Z,53.03
2023-02-14T16:36:15.895Z,53.05
2023-02-14T16:38:53.155Z,52.79
2023-02-14T16:41:26.141Z,52.91
2023-02-14T16:43:57.135Z,52.90
2023-02-14T16:46:34.437Z,52.61
2023-02-14T16:49:04.440Z,52.81
2023-02-14T16:51:37.223Z,52.92
2023-02-14T16:54:17.824Z,53.11
2023-02-14T16:56:52.225Z,53.73
2023-02-14T16:59:22.556Z,54.08
2023-02-14T17:01:53.033Z,54.27
2023-02-14T17:04:23.402Z,54.15
2023-02-14T17:06:57.266Z,54.07
2023-02-14T17:09:34.463Z,54.39
2023-02-14T17:12:12.958Z,54.15
2023-02-14T17:14:46.296Z,53.79
2023-02-14T17:17:16.876Z,53.73
2023-02-14T17:19:52.672Z,53.57
2023-02-14T17:22:23.390Z,53.76
2023-02-14T17:24:57.172Z,53.43
2023-02-14T17:27:27.548Z,53.85
2023-02-14T17:29:57.599Z,53.92
2023-02-14T17:32:27.611Z,53.87
2023-02-14T17:34:57.815Z,53.60
2023-02-14T17:37:28.873Z,53.67
2023-02-14T17:40:01.520Z,53.60
2023-02-14T17:42:33.475Z,53.91
2023-02-14T17:45:04.555Z,53.88
2023-02-14T17:47:34.709Z,53.62
2023-02-14T17:50:05.498Z,53.57
2023-02-14T17:52:35.555Z,53.42
2023-02-14T17:55:09.112Z,53.44
2023-02-14T17:57:41.077Z,53.86
2023-02-14T18:00:14.201Z,54.30
2023-02-14T18:02:44.148Z,54.72
2023-02-14T18:05:14.193Z,54.55
2023-02-14T18:07:44.250Z,54.52
2023-02-14T18:10:17.051Z,54.86
2023-02-14T18:12:46.993Z,54.41
2023-02-14T18:15:17.133Z,54.40
2023-02-14T18:17:47.247Z,54.60
2023-02-14T18:20:17.362Z,55.23
2023-02-14T18:22:47.258Z,55.75
2023-02-14T18:25:20.010Z,56.17
2023-02-14T18:27:50.085Z,55.89
2023-02-14T18:30:20.393Z,55.69
2023-02-14T18:32:50.328Z,55.67
2023-02-14T18:35:20.688Z,56.04
2023-02-14T18:37:51.831Z,55.70
2023-02-14T18:40:24.564Z,55.56
2023-02-14T18:42:54.647Z,55.07
2023-02-14T18:45:24.660Z,54.82
2023-02-14T18:47:55.057Z,54.52
2023-02-14T18:50:25.191Z,54.75
2023-02-14T18:52:55.324Z,54.56
2023-02-14T18:55:28.847Z,54.20
2023-02-14T18:57:58.945Z,54.07
2023-02-14T19:00:32.365Z,54.13
2023-02-14T19:03:03.820Z,54.67
2023-02-14T19:05:36.921Z,55.01
2023-02-14T19:08:07.514Z,55.12
2023-02-14T19:10:42.836Z,54.92
2023-02-14T19:13:12.962Z,55.31
2023-02-14T19:15:42.997Z,55.41
2023-02-14T19:18:13.002Z,55.58
2023-02-14T19:20:43.187Z,55.82
2023-02-14T19:23:13.118Z,55.91
2023-02-14T19:25:45.800Z,55.92
2023-02-14T19:28:15.850Z,55.97
2023-02-14T19:30:45.838Z,55.67
2023-02-14T19:33:16.545Z,55.55
2023-02-14T19:35:46.492Z,55.60
2023-02-14T19:38:16.591Z,55.39
2023-02-14T19:40:52.397Z,55.78
2023-02-14T19:43:22.752Z,55.93
2023-02-14T19:45:53.268Z,56.21
2023-02-14T19:48:24.906Z,56.53
2023-02-14T19:50:56.081Z,56.56
2023-02-14T19:53:26.256Z,57.18
2023-02-14T19:55:59.142Z,56.71
2023-02-14T19:58:29.797Z,56.69
2023-02-14T20:01:02.139Z,56.40
2023-02-14T20:03:32.442Z,56.24
2023-02-14T20:06:03.007Z,56.46
2023-02-14T20:08:33.552Z,56.47
2023-02-14T20:11:06.144Z,56.55
2023-02-14T20:13:36.251Z,56.34
2023-02-14T20:16:06.363Z,56.38
2023-02-14T20:18:38.633Z,56.56
2023-02-14T20:21:09.347Z,56.59
2023-02-14T20:23:39.288Z,56.47
2023-02-14T20:26:31.054Z,56.56
2023-02-14T20:29:03.968Z,56.38
2023-02-14T20:31:35.144Z,56.52
2023-02-14T20:34:07.179Z,56.46
2023-02-14T20:36:37.517Z,56.30
2023-02-14T20:39:11.025Z,56.60
2023-02-14T20:41:48.854Z,56.85
2023-02-14T20:44:24.827Z,56.33
2023-02-14T20:46:56.713Z,56.77
2023-02-14T20:49:34.483Z,57.11
2023-02-14T20:52:08.262Z,57.14
2023-02-14T20:54:50.204Z,57.19
2023-02-14T20:57:24.516Z,57.15
2023-02-14T20:59:54.584Z,57.02
2023-02-14T21:02:24.623Z,57.40
2023-02-14T21:04:54.700Z,57.52
2023-02-14T21:07:24.642Z,57.52
2023-02-14T21:09:54.569Z,57.22
2023-02-14T21:12:28.892Z,57.27
2023-02-14T21:15:03.926Z,56.86
2023-02-14T21:17:37.880Z,57.05
2023-02-14T21:20:10.634Z,57.07
2023-02-14T21:22:41.275Z,57.04
2023-02-14T21:25:11.433Z,57.16
2023-02-14T21:27:44.166Z,56.99
2023-02-14T21:30:15.316Z,57.14
2023-02-14T21:32:48.521Z,57.48
2023-02-14T21:35:19.151Z,57.50
2023-02-14T21:37:49.170Z,57.25
2023-02-14T21:40:19.318Z,56.83
2023-02-14T21:43:06.678Z,56.43
2023-02-14T21:45:57.888Z,56.55
2023-02-14T21:48:43.816Z,56.62
2023-02-14T21:51:19.678Z,56.74
2023-02-14T21:54:02.013Z,56.77
2023-02-14T21:56:45.809Z,56.95
2023-02-14T21:59:33.190Z,57.26
2023-02-14T22:02:03.436Z,57.43
2023-02-14T22:04:46.409Z,57.70
2023-02-14T22:07:16.383Z,57.46
2023-02-14T22:09:46.764Z,57.75
2023-02-14T22:12:19.735Z,57.79
2023-02-14T22:14:56.310Z,58.00
2023-02-14T22:17:26.305Z,57.87
2023-02-14T22:19:56.229Z,58.05
2023-02-14T22:22:34.384Z,57.88
2023-02-14T22:25:04.422Z,57.91
2023-02-14T22:27:36.978Z,58.26
2023-02-14T22:30:12.184Z,58.09
2023-02-14T22:32:44.233Z,57.85
2023-02-14T22:35:14.290Z,57.62
2023-02-14T22:37:44.347Z,57.83
2023-02-14T22:40:14.842Z,58.10
2023-02-14T22:42:44.921Z,58.28
2023-02-14T22:45:17.739Z,58.05
2023-02-14T22:47:47.806Z,58.05
2023-02-14T22:50:17.950Z,58.06
2023-02-14T22:52:48.019Z,58.18
2023-02-14T22:55:19.213Z,57.68
2023-02-14T22:57:49.223Z,57.80
2023-02-14T23:00:22.433Z,58.07
2023-02-14T23:02:52.707Z,58.14
2023-02-14T23:05:22.700Z,58.04
2023-02-14T23:07:52.761Z,58.08
2023-02-14T23:10:22.930Z,58.41
2023-02-14T23:13:05.312Z,58.38
2023-02-14T23:15:50.348Z,58.56
2023-02-14T23:18:32.741Z,58.14
2023-02-14T23:21:15.023Z,58.26
2023-02-14T23:23:45.085Z,58.01
2023-02-14T23:26:15.245Z,58.09
2023-02-14T23:28:45.268Z,58.69
2023-02-14T23:31:18.174Z,59.18
2023-02-14T23:33:48.182Z,58.97
2023-02-14T23:36:18.180Z,58.85
2023-02-14T23:38:48.166Z,58.84
2023-02-14T23:41:30.532Z,58.83
2023-02-14T23:44:00.539Z,58.55
2023-02-14T23:46:33.645Z,58.17
2023-02-14T23:49:03.657Z,58.04
2023-02-14T23:51:33.588Z,58.10
2023-02-14T23:54:03.664Z,58.45
2023-02-14T23:56:33.753Z,58.46
2023-02-14T23:59:03.934Z,58.54
